Novomoskovsk, Russia
Current Conditions -  °F | °C
As of 3:00 PM on Saturday 25 Oct 2014 (Local Time) from UUDD Reporting Station
Clear Clear  
Wind Chill: 21°   Ceiling: Unl
Heat Index: 27°   Visibility: 6mi
Dew Point: 10°   Wind: 4mph
Humidity: 51%   Direction: NA
Pressure: 30.62"   Gusts: NA
Location:  54.09°N, 38.22°E
Report Text: UUDD 251200Z VRB02MPS CAVOK M03/M12 Q1037 32010095 82010095NOSIG
Loading
Personal Weather Stations






























Interactive Weather Map
Tropical Storm Tracking
New forecast layout! Learn more

10-Day Weather Forecast

Advertisements
Track Severe Weather on mobile